Time;durP1;ratioP1;P1;durP2;ratioP2;P2;SDS_P1;SDS_P2;PMS_P1;PMS_P2;Temp;Humidity;BMP_temperature;BMP_pressure;BME280_temperature;BME280_humidity;BME280_pressure;Samples;Min_cycle;Max_cycle;Signal;HPM_P1;HPM_P2
2021/11/21 00:00:13;;;;;;;52.50;34.60;;;6.30;99.90;;;;;;5037639;28;20178;-91
2021/11/21 00:02:39;;;;;;;52.33;33.53;;;6.30;99.90;;;;;;5036943;28;20206;-91
2021/11/21 00:05:05;;;;;;;48.00;29.63;;;6.30;99.90;;;;;;5037532;28;20170;-91
2021/11/21 00:07:31;;;;;;;62.90;35.22;;;6.30;99.90;;;;;;5036830;28;20815;-91
2021/11/21 00:09:56;;;;;;;80.07;40.37;;;6.20;99.90;;;;;;5038243;28;20202;-91
2021/11/21 00:12:22;;;;;;;60.57;34.50;;;6.20;99.90;;;;;;5046620;28;20283;-90
2021/11/21 00:14:48;;;;;;;57.50;36.20;;;6.10;99.90;;;;;;5039163;28;20170;-90
2021/11/21 00:17:13;;;;;;;62.27;34.83;;;6.10;99.90;;;;;;5039488;28;20213;-91
2021/11/21 00:19:41;;;;;;;49.53;31.83;;;6.10;99.90;;;;;;5041143;28;20200;-91
2021/11/21 00:22:08;;;;;;;49.15;28.48;;;6.00;99.90;;;;;;5039574;28;20205;-91
2021/11/21 00:24:36;;;;;;;50.25;30.10;;;6.00;99.90;;;;;;5059493;28;20174;-92
2021/11/21 00:27:02;;;;;;;42.63;27.10;;;5.90;99.90;;;;;;5040518;28;20701;-91
2021/11/21 00:29:28;;;;;;;40.43;26.10;;;5.90;99.90;;;;;;5041429;28;20301;-90
2021/11/21 00:31:53;;;;;;;43.40;28.00;;;5.90;99.90;;;;;;5057140;28;20439;-91
2021/11/21 00:34:19;;;;;;;38.40;26.50;;;5.80;99.90;;;;;;5043247;28;20636;-90
2021/11/21 00:36:45;;;;;;;38.00;25.33;;;5.80;99.90;;;;;;5059295;28;20273;-91
2021/11/21 00:39:10;;;;;;;31.73;21.00;;;5.70;99.90;;;;;;5057659;28;20824;-91
2021/11/21 00:41:36;;;;;;;29.97;20.67;;;5.70;99.90;;;;;;5050996;28;20201;-90
2021/11/21 00:44:02;;;;;;;30.63;20.63;;;5.60;99.90;;;;;;5043169;28;20405;-91
2021/11/21 00:46:27;;;;;;;37.33;23.00;;;5.60;99.90;;;;;;5057003;28;20207;-91
2021/11/21 00:48:54;;;;;;;39.10;23.63;;;5.60;99.90;;;;;;5042087;28;20225;-91
2021/11/21 00:51:20;;;;;;;32.78;21.23;;;5.60;99.90;;;;;;5042823;28;20193;-91
2021/11/21 00:53:51;;;;;;;27.03;19.10;;;5.60;99.90;;;;;;5059972;28;20185;-91
2021/11/21 00:56:17;;;;;;;34.08;22.25;;;5.60;99.90;;;;;;5040563;28;20205;-90
2021/11/21 00:58:42;;;;;;;28.30;21.50;;;5.50;99.90;;;;;;5056992;28;20302;-91
2021/11/21 01:01:08;;;;;;;33.57;21.70;;;5.50;99.90;;;;;;5039102;28;20459;-92
2021/11/21 01:03:34;;;;;;;32.17;21.47;;;5.50;99.90;;;;;;5057452;28;20683;-92
2021/11/21 01:06:01;;;;;;;31.57;20.10;;;5.50;99.90;;;;;;5039022;28;20184;-91
2021/11/21 01:08:27;;;;;;;35.40;20.73;;;5.40;99.90;;;;;;5056867;28;20914;-90
2021/11/21 01:10:57;;;;;;;35.22;23.13;;;5.40;99.90;;;;;;5056950;28;20248;-90
2021/11/21 01:13:24;;;;;;;33.85;23.65;;;5.30;99.90;;;;;;5057085;28;20178;-91
2021/11/21 01:15:51;;;;;;;37.65;21.13;;;5.30;99.90;;;;;;5044792;28;20261;-91
2021/11/21 01:18:17;;;;;;;50.75;27.02;;;5.20;99.90;;;;;;5038327;28;20260;-91
2021/11/21 01:20:43;;;;;;;42.00;24.55;;;5.20;99.90;;;;;;5038499;28;20180;-92
2021/11/21 01:23:12;;;;;;;42.47;26.07;;;5.10;99.90;;;;;;5056264;28;20285;-91
2021/11/21 01:25:38;;;;;;;46.50;28.27;;;5.10;99.90;;;;;;5040771;28;20377;-92
2021/11/21 01:28:05;;;;;;;34.25;21.23;;;5.00;99.90;;;;;;5038324;28;20205;-91
2021/11/21 01:30:31;;;;;;;41.08;23.38;;;5.00;99.90;;;;;;5038648;28;20185;-89
2021/11/21 01:32:59;;;;;;;55.10;33.20;;;5.00;99.90;;;;;;5060344;28;20204;-90
2021/11/21 01:35:26;;;;;;;53.25;31.58;;;4.90;99.90;;;;;;5041530;28;20174;-91
2021/11/21 01:37:52;;;;;;;32.00;21.27;;;4.90;99.90;;;;;;5066649;28;20228;-92
2021/11/21 01:40:19;;;;;;;36.63;24.33;;;4.90;99.90;;;;;;5067227;28;20170;-91
2021/11/21 01:42:46;;;;;;;30.25;22.60;;;4.80;99.90;;;;;;5038164;28;20417;-91
2021/11/21 01:45:15;;;;;;;35.10;18.33;;;4.80;99.90;;;;;;5037871;28;20205;-91
2021/11/21 01:47:43;;;;;;;34.92;20.73;;;4.80;99.90;;;;;;5038109;28;20233;-89
2021/11/21 01:50:13;;;;;;;32.10;21.35;;;4.70;99.90;;;;;;5055600;28;20181;-92
2021/11/21 01:52:39;;;;;;;36.30;20.20;;;4.70;99.90;;;;;;5056910;28;20212;-92
2021/11/21 01:55:06;;;;;;;31.20;20.47;;;4.80;99.90;;;;;;5037953;28;20178;-91
2021/11/21 01:57:32;;;;;;;31.27;22.08;;;4.80;99.90;;;;;;5055597;28;20533;-91
2021/11/21 02:00:01;;;;;;;32.40;22.10;;;4.80;99.90;;;;;;5037933;28;20202;-92
2021/11/21 02:02:28;;;;;;;32.42;22.08;;;4.80;99.90;;;;;;5038291;28;20432;-90
2021/11/21 02:04:53;;;;;;;40.90;25.55;;;4.80;99.90;;;;;;5037720;28;20186;-91
2021/11/21 02:07:19;;;;;;;38.60;24.97;;;4.70;99.90;;;;;;5037673;28;20217;-90
2021/11/21 02:09:45;;;;;;;36.30;22.77;;;4.80;99.90;;;;;;5038110;28;20463;-89
2021/11/21 02:12:11;;;;;;;38.70;22.50;;;4.80;99.90;;;;;;5055461;28;20201;-91
2021/11/21 02:14:37;;;;;;;34.55;23.08;;;4.80;99.90;;;;;;5038428;28;20176;-92
2021/11/21 02:17:03;;;;;;;46.67;26.90;;;4.80;99.90;;;;;;5037694;28;20213;-91
2021/11/21 02:19:29;;;;;;;37.80;22.90;;;4.80;99.90;;;;;;5055681;28;20370;-92
2021/11/21 02:21:55;;;;;;;41.33;22.80;;;4.80;99.90;;;;;;5039500;28;20666;-92
2021/11/21 02:24:21;;;;;;;39.20;23.97;;;4.70;99.90;;;;;;5042142;28;20177;-89
2021/11/21 02:26:46;;;;;;;30.10;20.50;;;4.70;99.90;;;;;;5055307;28;20185;-91
2021/11/21 02:29:12;;;;;;;33.77;21.60;;;4.70;99.90;;;;;;5037409;28;20582;-91
2021/11/21 02:31:39;;;;;;;38.47;23.10;;;4.70;99.90;;;;;;5054860;28;20198;-91
2021/11/21 02:34:05;;;;;;;38.30;23.65;;;4.60;99.90;;;;;;5037295;28;20661;-90
2021/11/21 02:36:31;;;;;;;37.40;22.48;;;4.60;99.90;;;;;;5054935;28;20200;-91
2021/11/21 02:38:57;;;;;;;29.45;21.77;;;4.60;99.90;;;;;;5037649;28;20186;-91
2021/11/21 02:41:23;;;;;;;36.37;24.13;;;4.60;99.90;;;;;;5038582;28;20674;-91
2021/11/21 02:43:48;;;;;;;41.10;26.20;;;4.60;99.90;;;;;;5037651;28;20186;-91
2021/11/21 02:46:16;;;;;;;104.50;48.73;;;4.50;99.90;;;;;;5037155;28;20288;-91
2021/11/21 02:48:42;;;;;;;74.82;37.53;;;4.50;99.90;;;;;;5039101;28;20309;-91
2021/11/21 02:51:11;;;;;;;102.93;51.15;;;4.50;99.90;;;;;;5037258;28;20178;-90
2021/11/21 02:53:39;;;;;;;90.13;45.85;;;4.50;99.90;;;;;;5056547;28;20190;-91
2021/11/21 02:56:07;;;;;;;83.82;46.10;;;4.40;99.90;;;;;;5064251;28;20251;-91
2021/11/21 02:58:34;;;;;;;73.63;42.95;;;4.40;99.90;;;;;;5037226;28;20196;-92
2021/11/21 03:01:04;;;;;;;71.40;37.38;;;4.40;99.90;;;;;;5036841;28;20235;-91
2021/11/21 03:03:29;;;;;;;58.38;31.30;;;4.40;99.90;;;;;;5037283;28;20634;-91
2021/11/21 03:05:58;;;;;;;42.70;25.40;;;4.40;99.90;;;;;;5037026;28;20181;-91
2021/11/21 03:08:24;;;;;;;41.63;23.80;;;4.30;99.90;;;;;;5059259;28;20217;-91
2021/11/21 03:10:49;;;;;;;46.63;25.70;;;4.20;99.90;;;;;;5036788;28;20174;-91
2021/11/21 03:13:15;;;;;;;37.47;21.70;;;4.20;99.90;;;;;;5054836;28;20182;-91
2021/11/21 03:15:41;;;;;;;36.53;21.63;;;4.10;99.90;;;;;;5055041;28;20535;-91
2021/11/21 03:18:07;;;;;;;41.47;24.17;;;4.00;99.90;;;;;;5054385;28;20241;-91
2021/11/21 03:20:34;;;;;;;48.73;28.63;;;3.90;99.90;;;;;;5036820;28;20192;-91
2021/11/21 03:23:01;;;;;;;52.45;29.25;;;3.80;99.90;;;;;;5039062;28;20216;-91
2021/11/21 03:25:27;;;;;;;47.83;27.40;;;3.80;99.90;;;;;;5041387;28;20178;-91
2021/11/21 03:27:52;;;;;;;57.42;30.60;;;3.70;99.90;;;;;;5055004;28;20205;-91
2021/11/21 03:30:20;;;;;;;55.63;27.40;;;3.70;99.90;;;;;;5054568;28;20333;-90
2021/11/21 03:32:47;;;;;;;48.70;27.90;;;3.70;99.90;;;;;;5036568;28;20202;-90
2021/11/21 03:35:14;;;;;;;44.80;25.60;;;3.70;99.90;;;;;;5054310;28;20695;-90
2021/11/21 03:37:41;;;;;;;42.97;24.85;;;3.60;99.90;;;;;;5055884;28;20209;-90
2021/11/21 03:40:11;;;;;;;43.33;27.77;;;3.60;99.90;;;;;;5036681;28;20182;-90
2021/11/21 03:42:38;;;;;;;38.15;24.30;;;3.50;99.90;;;;;;5036802;28;20229;-91
2021/11/21 03:45:05;;;;;;;40.47;24.80;;;3.50;99.90;;;;;;5054225;28;20182;-90
2021/11/21 03:47:31;;;;;;;35.13;23.10;;;3.50;99.90;;;;;;5054219;28;20241;-91
2021/11/21 03:49:57;;;;;;;34.30;22.60;;;3.40;99.90;;;;;;5037787;28;20233;-90
2021/11/21 03:52:23;;;;;;;39.17;24.63;;;3.30;99.90;;;;;;5036496;28;20304;-90
2021/11/21 03:54:49;;;;;;;32.80;22.40;;;3.30;99.90;;;;;;5054324;28;20252;-90
2021/11/21 03:57:14;;;;;;;38.67;21.75;;;3.30;99.90;;;;;;5036486;28;20254;-90
2021/11/21 03:59:40;;;;;;;31.43;20.73;;;3.20;99.90;;;;;;5054622;28;20259;-88
2021/11/21 04:02:07;;;;;;;28.83;20.10;;;3.20;99.90;;;;;;5040393;28;20201;-90
2021/11/21 04:04:33;;;;;;;35.28;23.15;;;3.20;99.90;;;;;;5058090;28;20541;-89
2021/11/21 04:06:59;;;;;;;35.35;22.63;;;3.10;99.90;;;;;;5044705;28;20193;-89
2021/11/21 04:09:25;;;;;;;29.30;20.42;;;3.10;99.90;;;;;;5048448;28;20202;-90
2021/11/21 04:11:52;;;;;;;35.80;23.07;;;3.10;99.90;;;;;;5058844;28;20182;-90
2021/11/21 04:14:18;;;;;;;28.98;20.13;;;3.10;99.90;;;;;;5060055;28;20504;-89
2021/11/21 04:16:45;;;;;;;28.95;21.25;;;3.10;99.90;;;;;;5058103;28;20689;-90
2021/11/21 04:19:11;;;;;;;32.80;22.25;;;3.10;99.90;;;;;;5044427;28;20398;-90
2021/11/21 04:21:37;;;;;;;37.88;24.90;;;3.10;99.90;;;;;;5039697;28;20240;-90
2021/11/21 04:24:05;;;;;;;39.72;24.13;;;3.10;99.90;;;;;;5057776;28;20185;-90
2021/11/21 04:26:31;;;;;;;32.88;23.05;;;3.10;99.90;;;;;;5039624;28;20209;-90
2021/11/21 04:28:57;;;;;;;35.33;23.48;;;3.10;99.90;;;;;;5039796;28;20222;-89
2021/11/21 04:31:23;;;;;;;47.97;30.00;;;3.10;99.90;;;;;;5039424;28;20666;-90
2021/11/21 04:33:49;;;;;;;56.60;32.47;;;3.10;99.90;;;;;;5057541;28;20305;-89
2021/11/21 04:36:15;;;;;;;54.22;33.38;;;3.10;99.90;;;;;;5039698;28;20244;-90
2021/11/21 04:38:40;;;;;;;54.73;35.83;;;3.10;99.90;;;;;;5039870;28;20190;-89
2021/11/21 04:41:06;;;;;;;51.27;33.87;;;3.10;99.90;;;;;;5057246;28;20871;-89
2021/11/21 04:43:32;;;;;;;56.80;35.23;;;3.10;99.90;;;;;;5057427;28;20170;-89
2021/11/21 04:45:58;;;;;;;55.47;35.53;;;3.10;99.90;;;;;;5045675;28;20826;-90
2021/11/21 04:48:25;;;;;;;59.30;33.80;;;3.10;99.90;;;;;;5038983;28;20225;-90
2021/11/21 04:50:52;;;;;;;53.28;33.80;;;3.10;99.90;;;;;;5038913;28;20184;-89
2021/11/21 04:53:18;;;;;;;37.00;23.88;;;3.10;99.90;;;;;;5056855;28;20182;-89
2021/11/21 04:55:44;;;;;;;44.13;24.33;;;3.10;99.90;;;;;;5056169;28;20227;-90
2021/11/21 04:58:10;;;;;;;58.57;35.37;;;3.10;99.90;;;;;;5038761;28;20244;-90
2021/11/21 05:00:36;;;;;;;60.13;32.50;;;3.10;99.90;;;;;;5039049;28;20677;-89
2021/11/21 05:03:02;;;;;;;63.00;37.60;;;3.10;99.90;;;;;;5058946;28;20505;-89
2021/11/21 05:05:27;;;;;;;46.40;26.13;;;3.00;99.90;;;;;;5052956;28;20419;-89
2021/11/21 05:07:54;;;;;;;37.13;24.47;;;3.00;99.90;;;;;;5061083;28;20428;-89
2021/11/21 05:10:21;;;;;;;31.85;22.52;;;2.90;99.90;;;;;;5039041;28;20415;-89
2021/11/21 05:12:49;;;;;;;33.80;23.45;;;2.90;99.90;;;;;;5038317;28;20206;-90
2021/11/21 05:15:17;;;;;;;36.28;24.27;;;2.90;99.90;;;;;;5056885;28;20173;-90
2021/11/21 05:17:45;;;;;;;40.30;26.33;;;2.80;99.90;;;;;;5057846;28;20241;-89
2021/11/21 05:20:12;;;;;;;34.78;23.30;;;2.80;99.90;;;;;;5038612;28;20223;-90
2021/11/21 05:22:38;;;;;;;47.38;26.83;;;2.70;99.90;;;;;;5056240;28;20208;-90
2021/11/21 05:25:04;;;;;;;44.87;27.50;;;2.60;99.90;;;;;;5040795;28;20182;-89
2021/11/21 05:27:30;;;;;;;47.30;29.38;;;2.60;99.90;;;;;;5038348;28;20201;-90
2021/11/21 05:29:55;;;;;;;42.23;28.53;;;2.50;99.90;;;;;;5038457;28;20212;-89
2021/11/21 05:32:21;;;;;;;47.70;29.50;;;2.40;99.90;;;;;;5056304;28;20429;-89
2021/11/21 05:34:47;;;;;;;52.10;32.13;;;2.40;99.90;;;;;;5046079;28;20180;-89
2021/11/21 05:37:13;;;;;;;76.47;40.83;;;2.40;99.90;;;;;;5043438;28;20201;-89
2021/11/21 05:39:39;;;;;;;83.23;46.13;;;2.30;99.90;;;;;;5038248;28;20700;-88
2021/11/21 05:42:05;;;;;;;75.43;43.33;;;2.20;99.90;;;;;;5038762;28;20442;-90
2021/11/21 05:44:31;;;;;;;76.53;37.85;;;2.20;99.90;;;;;;5038229;28;20728;-89
2021/11/21 05:46:56;;;;;;;61.67;36.30;;;2.10;99.90;;;;;;5055516;28;20194;-89
2021/11/21 05:49:22;;;;;;;64.07;36.57;;;2.10;99.90;;;;;;5038365;28;20282;-88
2021/11/21 05:51:48;;;;;;;63.80;38.77;;;2.00;99.90;;;;;;5055759;28;20200;-90
2021/11/21 05:54:13;;;;;;;67.80;39.10;;;2.00;99.90;;;;;;5038760;28;20543;-87
2021/11/21 05:56:39;;;;;;;71.83;42.43;;;2.00;99.90;;;;;;5039497;28;20194;-89
2021/11/21 05:59:05;;;;;;;75.40;44.97;;;2.00;99.90;;;;;;5048816;28;20217;-89
2021/11/21 06:01:31;;;;;;;78.53;41.43;;;2.00;99.90;;;;;;5039426;28;20423;-89
2021/11/21 06:03:57;;;;;;;82.90;42.80;;;2.00;99.90;;;;;;5038286;28;20276;-89
2021/11/21 06:06:23;;;;;;;77.03;43.47;;;2.00;99.90;;;;;;5039594;28;20205;-89
2021/11/21 06:08:48;;;;;;;80.30;42.10;;;2.00;99.90;;;;;;5038424;28;20218;-89
2021/11/21 06:11:14;;;;;;;83.67;40.90;;;2.00;99.90;;;;;;5055350;28;20197;-89
2021/11/21 06:13:41;;;;;;;74.87;41.83;;;2.00;99.90;;;;;;5037563;28;20182;-90
2021/11/21 06:16:07;;;;;;;75.20;41.55;;;2.00;99.90;;;;;;5054934;28;20457;-89
2021/11/21 06:18:32;;;;;;;88.90;43.00;;;2.10;99.90;;;;;;5037267;28;20229;-90
2021/11/21 06:20:58;;;;;;;80.87;42.10;;;2.10;99.90;;;;;;5054914;28;20779;-89
2021/11/21 06:23:24;;;;;;;62.80;41.37;;;2.10;99.90;;;;;;5038060;28;20320;-89
2021/11/21 06:25:50;;;;;;;72.22;41.20;;;2.20;99.90;;;;;;5037202;28;20181;-89
2021/11/21 06:28:17;;;;;;;76.32;41.70;;;2.20;99.90;;;;;;5038548;28;20249;-90
2021/11/21 06:30:43;;;;;;;72.22;41.78;;;2.20;99.90;;;;;;5058125;28;20184;-89
2021/11/21 06:33:16;;;;;;;68.53;39.30;;;2.30;99.90;;;;;;5047689;28;20210;-90
2021/11/21 06:35:42;;;;;;;62.00;38.13;;;2.30;99.90;;;;;;5037487;28;20374;-89
2021/11/21 06:38:08;;;;;;;66.17;36.70;;;2.30;99.90;;;;;;5056182;28;20259;-90
2021/11/21 06:40:33;;;;;;;72.67;41.60;;;2.30;99.90;;;;;;5054909;28;20901;-89
2021/11/21 06:42:59;;;;;;;58.37;37.27;;;2.40;99.90;;;;;;5037010;28;20474;-90
2021/11/21 06:45:25;;;;;;;61.87;38.10;;;2.40;99.90;;;;;;5036927;28;20228;-90
2021/11/21 06:47:50;;;;;;;51.73;34.37;;;2.40;99.90;;;;;;5037747;28;20206;-90
2021/11/21 06:50:17;;;;;;;50.47;34.17;;;2.40;99.90;;;;;;5055067;28;20205;-90
2021/11/21 06:52:43;;;;;;;60.40;35.55;;;2.40;99.90;;;;;;5043918;28;20202;-90
2021/11/21 06:55:11;;;;;;;53.90;34.17;;;2.40;99.90;;;;;;5060317;28;20185;-90
2021/11/21 06:57:37;;;;;;;56.42;34.47;;;2.40;99.90;;;;;;5036898;28;20613;-90
2021/11/21 07:00:06;;;;;;;61.58;36.55;;;2.40;99.90;;;;;;5054652;28;20274;-90
2021/11/21 07:02:32;;;;;;;56.53;35.83;;;2.50;99.90;;;;;;5056348;28;20560;-90
2021/11/21 07:04:58;;;;;;;53.67;36.60;;;2.50;99.90;;;;;;5057630;28;20176;-89
2021/11/21 07:07:23;;;;;;;57.93;36.93;;;2.50;99.90;;;;;;5055199;28;20272;-90
2021/11/21 07:09:49;;;;;;;61.30;36.23;;;2.50;99.90;;;;;;5054452;28;20197;-89
2021/11/21 07:12:15;;;;;;;52.97;36.00;;;2.50;99.90;;;;;;5036833;28;20206;-90
2021/11/21 07:14:40;;;;;;;55.80;36.30;;;2.60;99.90;;;;;;5054536;28;20704;-89
2021/11/21 07:17:06;;;;;;;51.60;34.20;;;2.70;99.90;;;;;;5036558;28;20454;-91
2021/11/21 07:19:32;;;;;;;52.13;34.33;;;2.70;99.90;;;;;;5034517;28;20182;-90
2021/11/21 07:21:58;;;;;;;56.13;37.20;;;2.70;99.90;;;;;;5056607;28;20206;-90
2021/11/21 07:24:24;;;;;;;60.50;36.77;;;2.80;99.90;;;;;;5067990;28;20409;-91
2021/11/21 07:26:50;;;;;;;59.30;38.13;;;2.90;99.90;;;;;;5040168;28;20488;-91
2021/11/21 07:29:16;;;;;;;69.63;41.05;;;2.90;99.90;;;;;;5031892;28;20221;-91
2021/11/21 07:31:42;;;;;;;60.28;39.50;;;3.00;99.90;;;;;;5045387;28;20202;-91
2021/11/21 07:34:08;;;;;;;64.37;41.47;;;3.00;99.90;;;;;;5034562;28;20189;-91
2021/11/21 07:36:34;;;;;;;74.03;43.78;;;3.10;99.90;;;;;;5039955;28;20198;-90
2021/11/21 07:39:00;;;;;;;69.28;42.85;;;3.10;99.90;;;;;;5037104;28;20277;-90
2021/11/21 07:41:26;;;;;;;68.10;43.13;;;3.10;99.90;;;;;;5051148;28;20228;-92
2021/11/21 07:43:52;;;;;;;73.13;43.08;;;3.20;99.90;;;;;;5041914;28;20217;-91
2021/11/21 07:46:18;;;;;;;69.60;44.13;;;3.20;99.90;;;;;;5062591;28;20202;-91
2021/11/21 07:48:44;;;;;;;83.45;52.80;;;3.30;99.90;;;;;;5063620;28;20470;-91
2021/11/21 07:51:09;;;;;;;85.93;51.00;;;3.40;99.90;;;;;;5051488;28;20206;-90
2021/11/21 07:53:35;;;;;;;92.17;53.67;;;3.60;99.90;;;;;;5045621;28;20265;-90
2021/11/21 07:56:01;;;;;;;90.70;49.10;;;3.70;99.90;;;;;;5040104;28;20713;-91
2021/11/21 07:58:28;;;;;;;84.83;52.20;;;3.80;99.90;;;;;;5024505;28;20183;-91
2021/11/21 08:00:54;;;;;;;86.30;48.13;;;3.90;99.90;;;;;;5041857;28;20401;-91
2021/11/21 08:03:20;;;;;;;99.95;56.88;;;4.00;99.90;;;;;;5058316;28;20245;-91
2021/11/21 08:05:46;;;;;;;78.83;50.20;;;4.10;99.90;;;;;;5040541;28;20178;-91
2021/11/21 08:08:12;;;;;;;98.28;55.92;;;4.10;99.90;;;;;;5059689;28;20446;-92
2021/11/21 08:10:38;;;;;;;99.47;54.38;;;4.30;99.90;;;;;;5030496;28;20182;-91
2021/11/21 08:13:04;;;;;;;99.70;55.67;;;4.30;99.90;;;;;;5028553;28;20608;-90
2021/11/21 08:15:30;;;;;;;98.32;54.03;;;4.50;99.90;;;;;;5031718;28;20190;-91
2021/11/21 08:17:56;;;;;;;89.13;54.83;;;4.60;99.90;;;;;;5057291;28;20260;-91
2021/11/21 08:20:21;;;;;;;99.23;59.57;;;4.70;99.90;;;;;;5053520;28;20206;-90
2021/11/21 08:22:47;;;;;;;94.37;52.53;;;4.70;99.90;;;;;;5045326;28;20593;-90
2021/11/21 08:25:14;;;;;;;91.20;55.17;;;4.80;99.90;;;;;;5034544;28;20400;-91
2021/11/21 08:27:41;;;;;;;78.65;50.92;;;4.90;99.90;;;;;;5040012;28;20425;-91
2021/11/21 08:30:08;;;;;;;97.57;52.47;;;5.00;99.90;;;;;;5030906;28;20198;-91
2021/11/21 08:32:35;;;;;;;76.63;51.35;;;5.10;99.90;;;;;;5048821;28;20205;-91
2021/11/21 08:35:01;;;;;;;81.47;53.75;;;5.20;99.90;;;;;;5037678;28;20616;-90
2021/11/21 08:37:27;;;;;;;85.40;51.40;;;5.30;99.90;;;;;;5046950;28;20284;-90
2021/11/21 08:39:54;;;;;;;95.33;59.67;;;5.40;99.90;;;;;;5035993;28;20416;-91
2021/11/21 08:42:20;;;;;;;88.00;60.47;;;5.50;99.90;;;;;;5046790;28;20571;-91
2021/11/21 08:44:46;;;;;;;82.18;55.40;;;5.60;99.90;;;;;;5044864;28;20666;-90
2021/11/21 08:47:11;;;;;;;76.15;50.97;;;5.80;99.90;;;;;;5044510;28;20214;-89
2021/11/21 08:49:38;;;;;;;87.43;53.33;;;5.90;99.90;;;;;;5029800;28;20582;-88
2021/11/21 08:52:05;;;;;;;91.00;52.47;;;6.00;99.90;;;;;;5037690;28;20708;-90
2021/11/21 08:54:31;;;;;;;92.70;54.58;;;6.10;99.90;;;;;;5050744;28;20181;-90
2021/11/21 08:56:57;;;;;;;81.27;52.27;;;6.10;99.90;;;;;;5053949;28;20209;-91
2021/11/21 08:59:23;;;;;;;95.67;55.47;;;6.20;99.90;;;;;;5035507;28;20182;-91
2021/11/21 09:01:50;;;;;;;94.40;54.63;;;6.30;99.90;;;;;;5028456;28;20202;-91
2021/11/21 09:04:17;;;;;;;83.90;51.08;;;6.40;99.90;;;;;;5038506;28;20951;-90
2021/11/21 09:06:44;;;;;;;91.90;55.92;;;6.50;99.90;;;;;;5021259;28;20305;-91
2021/11/21 09:09:10;;;;;;;88.88;55.13;;;6.60;99.90;;;;;;5041177;28;20754;-91
2021/11/21 09:11:36;;;;;;;76.23;50.00;;;6.80;99.90;;;;;;5030894;28;20225;-91
2021/11/21 09:14:06;;;;;;;79.17;55.67;;;6.90;99.90;;;;;;5024006;28;20193;-90
2021/11/21 09:16:32;;;;;;;91.43;53.53;;;7.00;99.90;;;;;;5025639;28;20678;-91
2021/11/21 09:18:58;;;;;;;79.63;51.77;;;7.10;99.90;;;;;;5041326;28;20238;-91
2021/11/21 09:21:23;;;;;;;96.77;56.40;;;7.20;99.90;;;;;;5035774;28;20429;-91
2021/11/21 09:23:49;;;;;;;76.20;48.00;;;7.40;99.90;;;;;;5051056;28;20191;-90
2021/11/21 09:26:15;;;;;;;67.50;44.00;;;7.60;99.90;;;;;;5037561;28;20205;-91
2021/11/21 09:28:41;;;;;;;66.23;44.30;;;7.90;99.90;;;;;;5018335;28;20710;-90
2021/11/21 09:31:06;;;;;;;56.00;39.40;;;8.30;99.90;;;;;;5044457;28;20770;-90
2021/11/21 09:33:32;;;;;;;57.43;36.27;;;9.00;99.90;;;;;;5040986;28;20806;-90
2021/11/21 09:35:58;;;;;;;45.80;34.07;;;9.80;99.90;;;;;;5023203;28;20210;-91
2021/11/21 09:38:26;;;;;;;52.03;36.80;;;10.60;99.90;;;;;;5045733;28;20212;-91
2021/11/21 09:40:54;;;;;;;49.17;33.15;;;11.30;99.90;;;;;;5032172;28;20558;-90
2021/11/21 09:43:20;;;;;;;66.72;51.05;;;11.80;99.90;;;;;;5021915;28;20201;-91
2021/11/21 09:45:46;;;;;;;50.50;35.53;;;12.10;99.90;;;;;;5044495;28;20178;-91
2021/11/21 09:48:12;;;;;;;44.03;32.42;;;12.50;99.90;;;;;;5050537;28;20550;-90
2021/11/21 09:50:40;;;;;;;47.40;34.73;;;12.70;99.90;;;;;;5055455;28;20186;-91
2021/11/21 09:53:07;;;;;;;46.60;34.10;;;12.80;99.90;;;;;;5040252;28;20447;-90
2021/11/21 09:55:34;;;;;;;49.35;30.17;;;12.90;99.90;;;;;;5027174;28;20181;-90
2021/11/21 09:58:00;;;;;;;49.15;38.05;;;12.80;99.90;;;;;;5046204;28;20552;-91
2021/11/21 10:00:27;;;;;;;57.60;41.55;;;12.60;99.90;;;;;;5028191;28;20189;-90
2021/11/21 10:03:11;;;;;;;60.67;45.50;;;12.30;99.90;;;;;;5033187;28;20235;-91
2021/11/21 10:05:39;;;;;;;58.35;40.35;;;12.20;99.90;;;;;;5045290;28;20816;-91
2021/11/21 10:08:12;;;;;;;56.60;39.45;;;12.10;99.90;;;;;;5031311;28;20213;-89
2021/11/21 10:10:43;;;;;;;53.05;36.53;;;12.10;99.90;;;;;;5045087;28;20175;-92
2021/11/21 10:13:28;;;;;;;48.53;37.60;;;12.10;99.90;;;;;;5046695;28;20582;-91
2021/11/21 10:15:55;;;;;;;52.40;39.15;;;12.20;99.90;;;;;;5044594;28;20281;-89
2021/11/21 10:18:21;;;;;;;54.58;38.80;;;12.30;99.90;;;;;;5055152;28;20312;-92
2021/11/21 10:20:47;;;;;;;59.00;50.13;;;12.50;99.90;;;;;;5039709;28;20202;-91
2021/11/21 10:23:13;;;;;;;49.40;38.07;;;12.70;99.90;;;;;;5057774;28;20202;-91
2021/11/21 10:25:48;;;;;;;51.30;36.30;;;12.90;99.90;;;;;;5038838;28;20410;-92
2021/11/21 10:28:33;;;;;;;50.47;37.87;;;13.10;99.90;;;;;;5037493;28;20223;-92
2021/11/21 10:31:10;;;;;;;57.03;39.27;;;13.20;99.90;;;;;;5039170;28;20489;-91
2021/11/21 10:33:58;;;;;;;48.20;37.60;;;13.10;99.90;;;;;;5038245;28;20426;-91
2021/11/21 10:36:27;;;;;;;56.80;42.57;;;12.90;99.90;;;;;;5038049;28;20965;-91
2021/11/21 10:38:56;;;;;;;51.90;36.93;;;12.70;99.90;;;;;;5057828;28;20454;-92
2021/11/21 10:41:25;;;;;;;61.33;42.57;;;12.60;99.90;;;;;;5037508;28;20443;-92
2021/11/21 10:44:04;;;;;;;54.10;36.60;;;12.60;99.90;;;;;;5055268;28;20431;-93
2021/11/21 10:46:34;;;;;;;36.80;26.83;;;12.60;99.90;;;;;;5037406;28;20487;-92
2021/11/21 10:49:20;;;;;;;35.70;26.17;;;12.60;99.90;;;;;;5037235;28;20486;-92
2021/11/21 10:51:48;;;;;;;34.80;23.40;;;12.60;99.90;;;;;;5041328;28;20485;-92
2021/11/21 10:54:18;;;;;;;31.43;23.37;;;12.70;99.90;;;;;;5056916;28;20489;-91
2021/11/21 10:56:52;;;;;;;28.63;22.00;;;12.80;99.90;;;;;;5036670;28;20438;-90
2021/11/21 10:59:49;;;;;;;30.33;22.60;;;12.80;99.90;;;;;;5035879;28;20418;-91
2021/11/21 11:02:24;;;;;;;27.77;20.20;;;12.90;99.90;;;;;;5018547;28;20460;-91
2021/11/21 11:05:18;;;;;;;32.07;21.97;;;13.00;99.90;;;;;;5055857;28;20435;-91
2021/11/21 11:07:47;;;;;;;33.47;25.77;;;13.00;99.90;;;;;;5033273;28;20467;-91
2021/11/21 11:10:17;;;;;;;29.67;21.97;;;13.00;99.90;;;;;;5040191;28;20466;-92
2021/11/21 11:12:48;;;;;;;28.40;20.67;;;13.00;99.90;;;;;;5058041;28;20457;-92
2021/11/21 11:15:14;;;;;;;30.20;22.73;;;13.00;99.90;;;;;;5039700;28;20895;-91
2021/11/21 11:17:41;;;;;;;28.13;22.00;;;13.10;99.90;;;;;;5056509;28;20461;-91
2021/11/21 11:20:14;;;;;;;29.70;23.07;;;13.20;99.90;;;;;;5048114;28;20409;-91
2021/11/21 11:22:40;;;;;;;25.80;19.10;;;13.20;99.90;;;;;;5038382;28;20455;-92
2021/11/21 11:25:10;;;;;;;26.87;20.23;;;13.30;99.90;;;;;;5033755;28;20415;-91
2021/11/21 11:27:39;;;;;;;26.83;19.80;;;13.30;99.90;;;;;;5020951;28;20451;-93
2021/11/21 11:30:05;;;;;;;26.80;22.37;;;13.40;99.90;;;;;;5021701;28;20467;-93
2021/11/21 11:32:36;;;;;;;26.13;21.00;;;13.50;99.90;;;;;;5039660;28;20442;-93
2021/11/21 11:35:05;;;;;;;25.00;19.80;;;13.50;99.90;;;;;;5042139;28;20419;-93
2021/11/21 11:37:41;;;;;;;22.60;18.43;;;13.60;99.90;;;;;;5041553;28;20786;-91
2021/11/21 11:40:31;;;;;;;25.20;19.27;;;13.70;99.90;;;;;;5038848;28;20437;-89
2021/11/21 11:42:59;;;;;;;23.50;19.10;;;13.80;99.90;;;;;;5041036;28;20446;-93
2021/11/21 11:45:47;;;;;;;22.77;18.13;;;13.90;99.90;;;;;;5059663;28;20853;-93
2021/11/21 11:48:33;;;;;;;21.90;17.40;;;14.00;99.90;;;;;;5047488;28;20541;-91
2021/11/21 11:51:03;;;;;;;23.67;18.17;;;13.90;99.90;;;;;;5041971;28;20423;-92
2021/11/21 11:53:42;;;;;;;29.67;20.40;;;14.00;99.90;;;;;;5043000;28;20485;-92
2021/11/21 11:56:29;;;;;;;25.13;18.30;;;14.00;99.90;;;;;;5061631;28;20398;-92
2021/11/21 11:59:03;;;;;;;28.10;20.93;;;14.00;99.90;;;;;;5060325;28;20423;-93
2021/11/21 12:01:38;;;;;;;36.93;27.63;;;14.10;99.90;;;;;;5044499;28;20441;-92
2021/11/21 12:04:13;;;;;;;29.77;22.73;;;14.10;99.90;;;;;;5041772;28;20465;-93
2021/11/21 12:06:50;;;;;;;25.90;19.33;;;14.20;99.90;;;;;;5040710;28;20425;-93
2021/11/21 12:09:15;;;;;;;24.00;19.00;;;14.20;99.90;;;;;;5045286;28;20469;-93
2021/11/21 12:12:04;;;;;;;24.90;17.77;;;14.30;99.90;;;;;;5042356;28;20446;-91
2021/11/21 12:14:31;;;;;;;28.13;20.77;;;14.30;99.90;;;;;;5050146;28;20660;-91
2021/11/21 12:17:04;;;;;;;22.23;17.63;;;14.30;99.90;;;;;;5049172;28;20440;-92
2021/11/21 12:19:46;;;;;;;23.03;18.07;;;14.30;99.90;;;;;;5022022;28;20420;-92
2021/11/21 12:22:28;;;;;;;24.63;19.10;;;14.40;99.90;;;;;;5019832;28;20470;-93
2021/11/21 12:25:01;;;;;;;25.70;19.00;;;14.40;99.90;;;;;;5037821;28;20422;-93
2021/11/21 12:27:33;;;;;;;27.07;19.40;;;14.30;99.90;;;;;;5020483;28;20470;-93
2021/11/21 12:30:07;;;;;;;25.57;19.33;;;14.30;99.90;;;;;;5040614;28;20877;-93
2021/11/21 12:32:34;;;;;;;21.50;17.50;;;14.30;99.90;;;;;;5020334;28;20455;-91
2021/11/21 12:35:02;;;;;;;26.60;20.00;;;14.30;99.90;;;;;;5019801;28;20903;-89
2021/11/21 12:37:39;;;;;;;27.93;20.97;;;14.30;99.90;;;;;;5019775;28;20459;-90